createdAt,value
2018-10-09T00:03:46.060Z,12.80
2018-10-09T00:06:14.876Z,12.70
2018-10-09T00:08:44.537Z,12.70
2018-10-09T00:11:13.050Z,12.70
2018-10-09T00:16:09.861Z,12.80
2018-10-09T00:18:38.209Z,12.60
2018-10-09T00:23:34.763Z,12.50
2018-10-09T00:26:03.501Z,12.50
2018-10-09T00:28:31.749Z,12.50
2018-10-09T00:31:00.186Z,12.50
2018-10-09T00:35:57.524Z,12.30
2018-10-09T00:40:53.830Z,12.20
2018-10-09T00:43:22.384Z,12.20
2018-10-09T00:45:51.085Z,12.20
2018-10-09T00:48:19.647Z,12.10
2018-10-09T00:50:48.099Z,12.10
2018-10-09T00:53:16.524Z,12.00
2018-10-09T00:55:44.785Z,12.00
2018-10-09T00:58:13.307Z,12.00
2018-10-09T01:00:41.650Z,12.00
2018-10-09T01:03:09.908Z,11.90
2018-10-09T01:05:38.412Z,11.80
2018-10-09T01:10:35.150Z,11.90
2018-10-09T01:13:03.408Z,11.90
2018-10-09T01:18:00.482Z,12.00
2018-10-09T01:20:33.080Z,12.00
2018-10-09T01:23:03.508Z,11.90
2018-10-09T01:25:32.209Z,11.70
2018-10-09T01:28:00.678Z,11.60
2018-10-09T01:30:28.921Z,11.60
2018-10-09T01:32:57.273Z,11.50
2018-10-09T01:35:25.681Z,11.40
2018-10-09T01:37:54.073Z,11.50
2018-10-09T01:42:50.757Z,11.60
2018-10-09T01:45:19.239Z,11.50
2018-10-09T01:47:47.605Z,11.40
2018-10-09T01:50:15.996Z,11.40
2018-10-09T01:52:44.537Z,11.30
2018-10-09T01:55:12.910Z,11.30
2018-10-09T02:00:10.436Z,11.20
2018-10-09T02:05:07.161Z,11.20
2018-10-09T02:10:03.948Z,11.30
2018-10-09T02:12:32.627Z,11.30
2018-10-09T02:15:00.878Z,11.20
2018-10-09T02:17:29.412Z,11.00
2018-10-09T02:19:57.818Z,11.00
2018-10-09T02:27:22.860Z,11.00
2018-10-09T02:29:51.448Z,11.00
2018-10-09T02:32:19.928Z,11.00
2018-10-09T02:37:16.339Z,10.90
2018-10-09T02:39:44.747Z,10.90
2018-10-09T02:42:13.444Z,11.20
2018-10-09T02:44:41.718Z,11.20
2018-10-09T02:47:10.087Z,11.10
2018-10-09T02:49:38.493Z,10.90
2018-10-09T02:52:06.856Z,10.90
2018-10-09T02:54:35.245Z,10.80
2018-10-09T02:57:03.686Z,10.80
2018-10-09T02:59:32.394Z,10.80
2018-10-09T03:02:00.781Z,10.80
2018-10-09T03:09:25.516Z,10.60
2018-10-09T03:11:53.973Z,10.60
2018-10-09T03:14:22.671Z,10.70
2018-10-09T03:16:51.907Z,10.70
2018-10-09T03:19:20.224Z,10.60
2018-10-09T03:21:48.323Z,10.60
2018-10-09T03:26:45.008Z,10.60
2018-10-09T03:34:09.568Z,10.50
2018-10-09T03:36:38.085Z,10.50
2018-10-09T03:41:35.420Z,10.50
2018-10-09T03:44:04.022Z,10.50
2018-10-09T03:46:32.498Z,10.40
2018-10-09T03:49:01.000Z,10.30
2018-10-09T03:51:29.601Z,10.30
2018-10-09T03:53:58.280Z,10.30
2018-10-09T04:01:23.992Z,10.10
2018-10-09T04:03:52.676Z,10.10
2018-10-09T04:06:21.095Z,10.20
2018-10-09T04:08:49.646Z,10.10
2018-10-09T04:13:47.261Z,10.40
2018-10-09T04:16:15.568Z,10.30
2018-10-09T04:18:44.133Z,10.20
2018-10-09T04:21:12.466Z,10.20
2018-10-09T04:23:40.675Z,10.00
2018-10-09T04:26:09.342Z,10.00
2018-10-09T04:28:38.092Z,10.00
2018-10-09T04:31:06.487Z,9.80
2018-10-09T04:36:03.383Z,9.80
2018-10-09T04:38:31.828Z,9.80
2018-10-09T04:41:00.211Z,9.80
2018-10-09T04:45:56.968Z,9.80
2018-10-09T04:48:25.273Z,9.80
2018-10-09T04:50:54.948Z,9.90
2018-10-09T04:53:23.339Z,9.80
2018-10-09T04:55:52.006Z,9.80
2018-10-09T04:58:20.451Z,9.90
2018-10-09T05:00:49.428Z,9.90
2018-10-09T05:03:17.811Z,9.90
2018-10-09T05:10:42.320Z,9.90
2018-10-09T05:13:10.664Z,9.90
2018-10-09T05:15:39.140Z,9.90
2018-10-09T05:18:07.447Z,10.00
2018-10-09T05:20:35.805Z,10.00
2018-10-09T05:23:04.145Z,10.10
2018-10-09T05:25:32.453Z,10.20
2018-10-09T05:28:00.843Z,10.20
2018-10-09T05:30:29.325Z,10.20
2018-10-09T05:35:25.700Z,10.50
2018-10-09T05:37:53.859Z,10.90
2018-10-09T05:40:22.274Z,11.50
2018-10-09T05:45:19.604Z,13.20
2018-10-09T05:47:47.848Z,14.00
2018-10-09T05:50:16.433Z,14.70
2018-10-09T05:52:44.936Z,15.30
2018-10-09T05:55:13.301Z,15.60
2018-10-09T05:57:41.806Z,15.90
2018-10-09T06:00:10.691Z,16.40
2018-10-09T06:02:39.103Z,16.70
2018-10-09T06:05:07.883Z,17.20
2018-10-09T06:07:36.896Z,17.90
2018-10-09T06:12:33.579Z,19.10
2018-10-09T06:15:01.976Z,19.70
2018-10-09T06:17:30.347Z,20.40
2018-10-09T06:19:58.720Z,21.10
2018-10-09T06:22:27.136Z,21.90
2018-10-09T06:24:55.477Z,22.50
2018-10-09T06:27:23.865Z,23.10
2018-10-09T06:29:52.145Z,23.60
2018-10-09T06:34:49.513Z,24.50
2018-10-09T06:37:17.889Z,24.90
2018-10-09T06:39:47.244Z,25.20
2018-10-09T06:42:15.625Z,25.60
2018-10-09T06:44:44.452Z,26.10
2018-10-09T06:47:12.723Z,26.60
2018-10-09T06:49:41.129Z,27.10
2018-10-09T06:52:09.392Z,27.40
2018-10-09T06:54:37.977Z,27.90
2018-10-09T06:57:06.265Z,28.30
2018-10-09T06:59:35.722Z,28.80
2018-10-09T07:02:03.852Z,29.20
2018-10-09T07:04:32.182Z,29.80
2018-10-09T07:07:00.405Z,30.20
2018-10-09T07:09:28.744Z,30.50
2018-10-09T07:11:57.700Z,30.20
2018-10-09T07:14:26.012Z,30.30
2018-10-09T07:16:54.613Z,29.30
2018-10-09T07:19:22.806Z,29.90
2018-10-09T07:21:51.149Z,30.80
2018-10-09T07:24:19.644Z,31.20
2018-10-09T07:26:48.459Z,31.60
2018-10-09T07:29:16.603Z,31.90
2018-10-09T07:31:44.769Z,32.50
2018-10-09T07:36:41.530Z,33.00
2018-10-09T07:39:12.289Z,32.60
2018-10-09T07:41:41.039Z,33.20
2018-10-09T07:44:09.143Z,33.40
2018-10-09T07:51:33.993Z,33.10
2018-10-09T07:54:02.315Z,33.10
2018-10-09T07:56:30.783Z,33.40
2018-10-09T07:58:59.043Z,34.00
2018-10-09T08:01:27.452Z,33.60
2018-10-09T08:03:55.749Z,32.80
2018-10-09T08:06:24.213Z,32.30
2018-10-09T08:08:52.557Z,32.60
2018-10-09T08:11:20.856Z,31.90
2018-10-09T08:13:49.245Z,32.70
2018-10-09T08:16:17.472Z,32.60
2018-10-09T08:18:46.086Z,32.50
2018-10-09T08:21:14.497Z,32.50
2018-10-09T08:23:42.963Z,32.90
2018-10-09T08:26:11.735Z,32.30
2018-10-09T08:28:39.923Z,32.20
2018-10-09T08:31:08.179Z,32.10
2018-10-09T08:33:36.901Z,32.20
2018-10-09T08:36:05.264Z,32.60
2018-10-09T08:38:33.567Z,33.00
2018-10-09T08:41:02.132Z,33.20
2018-10-09T08:45:59.701Z,33.60
2018-10-09T08:48:27.976Z,34.00
2018-10-09T08:50:55.935Z,34.30
2018-10-09T08:53:24.352Z,34.00
2018-10-09T08:55:52.606Z,34.30
2018-10-09T08:58:20.569Z,35.20
2018-10-09T09:00:49.272Z,35.10
2018-10-09T09:05:45.313Z,36.00
2018-10-09T09:08:13.260Z,36.00
2018-10-09T09:10:41.229Z,35.90
2018-10-09T09:13:09.224Z,34.60
2018-10-09T09:15:37.492Z,34.50
2018-10-09T09:18:05.552Z,34.40
2018-10-09T09:20:34.187Z,34.90
2018-10-09T09:23:02.288Z,34.70
2018-10-09T09:28:00.118Z,34.80
2018-10-09T09:30:28.559Z,34.50
2018-10-09T09:32:56.752Z,34.30
2018-10-09T09:35:25.212Z,34.20
2018-10-09T09:37:53.737Z,34.80
2018-10-09T09:40:21.880Z,35.20
2018-10-09T09:42:50.229Z,35.80
2018-10-09T09:45:18.242Z,35.80
2018-10-09T09:47:46.756Z,36.10
2018-10-09T09:50:16.009Z,36.00
2018-10-09T09:52:44.088Z,36.20
2018-10-09T09:55:12.056Z,35.30
2018-10-09T10:01:11.651Z,35.60
2018-10-09T10:03:40.994Z,34.80
2018-10-09T10:06:09.293Z,35.00
2018-10-09T10:08:38.057Z,35.40
2018-10-09T10:11:06.807Z,35.50
2018-10-09T10:13:35.616Z,35.70
2018-10-09T10:16:04.469Z,35.00
2018-10-09T10:18:32.790Z,35.10
2018-10-09T10:23:29.243Z,34.20
2018-10-09T10:25:57.912Z,34.10
2018-10-09T10:28:26.308Z,34.30
2018-10-09T10:30:54.715Z,34.50
2018-10-09T10:33:23.136Z,34.70
2018-10-09T10:38:19.580Z,35.10
2018-10-09T10:40:48.337Z,34.30
2018-10-09T10:43:16.569Z,34.30
2018-10-09T10:45:45.065Z,33.80
2018-10-09T10:48:13.217Z,33.70
2018-10-09T10:50:41.768Z,33.70
2018-10-09T10:53:10.319Z,33.40
2018-10-09T11:00:35.837Z,32.30
2018-10-09T11:03:04.720Z,31.70
2018-10-09T11:05:33.208Z,31.60
2018-10-09T11:08:02.016Z,31.10
2018-10-09T11:10:30.286Z,30.90
2018-10-09T11:12:59.468Z,30.60
2018-10-09T11:20:25.112Z,30.60
2018-10-09T11:22:53.404Z,30.60
2018-10-09T11:25:21.828Z,30.30
2018-10-09T11:30:19.331Z,30.20
2018-10-09T11:32:47.613Z,30.20
2018-10-09T11:35:16.631Z,30.20
2018-10-09T11:40:12.971Z,30.40
2018-10-09T11:42:41.426Z,30.10
2018-10-09T11:45:09.954Z,30.10
2018-10-09T11:50:06.603Z,30.20
2018-10-09T11:55:02.964Z,30.00
2018-10-09T11:57:31.684Z,29.90
2018-10-09T11:59:59.994Z,29.50
2018-10-09T12:02:28.674Z,29.40
2018-10-09T12:04:56.945Z,29.00
2018-10-09T12:07:25.440Z,29.00
2018-10-09T12:12:21.794Z,29.30
2018-10-09T12:14:50.163Z,29.20
2018-10-09T12:17:18.703Z,28.90
2018-10-09T12:22:14.944Z,28.90
2018-10-09T12:24:43.162Z,29.00
2018-10-09T12:27:12.327Z,28.90
2018-10-09T12:32:09.208Z,28.60
2018-10-09T12:34:37.771Z,28.60
2018-10-09T12:37:06.904Z,28.50
2018-10-09T12:39:35.283Z,28.20
2018-10-09T12:42:03.982Z,28.10
2018-10-09T12:44:32.384Z,28.20
2018-10-09T12:47:00.745Z,28.00
2018-10-09T12:49:29.561Z,28.10
2018-10-09T12:51:57.733Z,28.00
2018-10-09T12:54:26.253Z,28.20
2018-10-09T12:59:22.618Z,28.00
2018-10-09T13:01:50.993Z,28.30
2018-10-09T13:04:19.379Z,28.30
2018-10-09T13:06:47.670Z,28.20
2018-10-09T13:09:16.204Z,28.30
2018-10-09T13:11:44.376Z,28.20
2018-10-09T13:16:40.982Z,28.00
2018-10-09T13:19:09.933Z,27.70
2018-10-09T13:21:39.619Z,27.80
2018-10-09T13:24:08.115Z,27.90
2018-10-09T13:29:05.301Z,27.90
2018-10-09T13:31:34.079Z,28.00
2018-10-09T13:34:02.471Z,27.90
2018-10-09T13:38:58.833Z,27.70
2018-10-09T13:41:27.489Z,27.70
2018-10-09T13:43:55.947Z,27.40
2018-10-09T13:46:24.152Z,27.30
2018-10-09T13:48:52.621Z,27.40
2018-10-09T13:53:48.992Z,27.10
2018-10-09T13:56:17.460Z,27.00
2018-10-09T13:58:45.721Z,27.00
2018-10-09T14:03:42.082Z,27.10
2018-10-09T14:06:10.306Z,27.20
2018-10-09T14:11:07.955Z,26.90
2018-10-09T14:13:36.423Z,26.90
2018-10-09T14:16:04.694Z,26.90
2018-10-09T14:18:33.237Z,26.90
2018-10-09T14:21:01.432Z,26.80
2018-10-09T14:23:29.921Z,26.70
2018-10-09T14:25:58.400Z,26.80
2018-10-09T14:28:26.801Z,26.60
2018-10-09T14:30:54.993Z,26.30
2018-10-09T14:33:23.348Z,26.30
2018-10-09T14:35:51.912Z,25.90
2018-10-09T14:38:20.076Z,25.70
2018-10-09T14:40:48.869Z,25.80
2018-10-09T14:45:45.379Z,25.70
2018-10-09T14:48:14.021Z,25.60
2018-10-09T14:53:11.120Z,25.40
2018-10-09T14:55:39.692Z,25.30
2018-10-09T14:58:08.449Z,25.10
2018-10-09T15:00:37.211Z,25.10
2018-10-09T15:03:05.440Z,24.90
2018-10-09T15:05:33.905Z,24.70
2018-10-09T15:08:02.572Z,24.80
2018-10-09T15:10:30.857Z,24.50
2018-10-09T15:12:59.549Z,24.30
2018-10-09T15:15:27.907Z,23.70
2018-10-09T15:17:56.232Z,23.60
2018-10-09T15:20:24.773Z,23.60
2018-10-09T15:22:53.491Z,23.60
2018-10-09T15:25:21.843Z,23.50
2018-10-09T15:27:50.108Z,23.20
2018-10-09T15:30:18.615Z,23.10
2018-10-09T15:32:46.874Z,23.10
2018-10-09T15:35:17.011Z,23.00
2018-10-09T15:37:45.283Z,22.90
2018-10-09T15:40:13.644Z,22.80
2018-10-09T15:42:42.055Z,22.70
2018-10-09T15:50:07.057Z,22.10
2018-10-09T15:52:35.509Z,22.00
2018-10-09T15:55:03.809Z,21.70
2018-10-09T16:00:00.380Z,21.00
2018-10-09T16:02:28.755Z,21.00
2018-10-09T16:04:57.041Z,21.10
2018-10-09T16:09:53.279Z,20.60
2018-10-09T16:12:21.535Z,20.20
2018-10-09T16:17:17.829Z,19.90
2018-10-09T16:19:46.067Z,19.80
2018-10-09T16:22:14.408Z,19.80
2018-10-09T16:24:42.501Z,19.60
2018-10-09T16:27:10.984Z,19.50
2018-10-09T16:29:39.374Z,19.40
2018-10-09T16:32:07.641Z,19.30
2018-10-09T16:34:36.244Z,19.40
2018-10-09T16:37:04.799Z,19.10
2018-10-09T16:39:33.213Z,19.00
2018-10-09T16:42:01.516Z,18.90
2018-10-09T16:44:30.740Z,18.60
2018-10-09T16:47:03.503Z,18.50
2018-10-09T16:49:34.051Z,18.40
2018-10-09T16:52:02.492Z,18.20
2018-10-09T16:54:30.841Z,18.10
2018-10-09T16:56:59.485Z,18.00
2018-10-09T16:59:27.748Z,17.90
2018-10-09T17:01:56.068Z,17.80
2018-10-09T17:04:24.468Z,17.70
2018-10-09T17:06:52.783Z,17.50
2018-10-09T17:09:20.985Z,17.50
2018-10-09T17:11:49.688Z,17.40
2018-10-09T17:14:18.509Z,17.20
2018-10-09T17:16:46.726Z,17.20
2018-10-09T17:19:15.125Z,17.20
2018-10-09T17:24:11.345Z,17.30
2018-10-09T17:26:40.085Z,17.20
2018-10-09T17:29:08.442Z,17.10
2018-10-09T17:31:36.830Z,17.00
2018-10-09T17:36:33.181Z,16.90
2018-10-09T17:39:01.650Z,16.80
2018-10-09T17:41:30.359Z,16.90
2018-10-09T17:46:27.165Z,16.70
2018-10-09T17:51:23.732Z,16.50
2018-10-09T17:56:20.288Z,16.50
2018-10-09T17:58:48.704Z,16.50
2018-10-09T18:01:17.677Z,16.50
2018-10-09T18:06:14.378Z,16.50
2018-10-09T18:08:43.068Z,16.40
2018-10-09T18:11:11.544Z,16.30
2018-10-09T18:13:41.124Z,16.30
2018-10-09T18:21:06.172Z,16.10
2018-10-09T18:23:34.672Z,16.20
2018-10-09T18:26:03.041Z,16.20
2018-10-09T18:28:31.271Z,16.20
2018-10-09T18:30:59.932Z,16.30
2018-10-09T18:40:53.200Z,16.20
2018-10-09T18:43:21.640Z,16.20
2018-10-09T18:45:49.884Z,16.10
2018-10-09T18:48:18.399Z,16.10
2018-10-09T18:50:46.659Z,16.00
2018-10-09T18:53:15.666Z,16.20
2018-10-09T18:55:44.059Z,16.20
2018-10-09T19:00:40.624Z,16.10
2018-10-09T19:03:08.981Z,16.10
2018-10-09T19:08:05.336Z,15.80
2018-10-09T19:13:02.347Z,15.70
2018-10-09T19:17:59.345Z,15.70
2018-10-09T19:20:27.676Z,15.70
2018-10-09T19:25:24.281Z,15.70
2018-10-09T19:27:52.639Z,15.60
2018-10-09T19:30:21.148Z,15.50
2018-10-09T19:32:49.673Z,15.30
2018-10-09T19:35:17.892Z,15.20
2018-10-09T19:37:46.141Z,15.20
2018-10-09T19:40:14.400Z,15.30
2018-10-09T19:45:11.389Z,15.20
2018-10-09T19:47:39.801Z,15.10
2018-10-09T19:50:08.764Z,15.00
2018-10-09T19:55:06.031Z,15.00
2018-10-09T19:57:34.525Z,14.80
2018-10-09T20:00:03.482Z,14.80
2018-10-09T20:07:28.257Z,15.10
2018-10-09T20:09:56.625Z,15.00
2018-10-09T20:12:25.131Z,14.80
2018-10-09T20:14:53.853Z,14.80
2018-10-09T20:17:22.141Z,14.80
2018-10-09T20:19:50.421Z,14.70
2018-10-09T20:24:46.992Z,14.40
2018-10-09T20:29:44.914Z,14.50
2018-10-09T20:32:13.285Z,14.40
2018-10-09T20:34:41.797Z,14.20
2018-10-09T20:39:38.058Z,14.00
2018-10-09T20:42:06.559Z,14.10
2018-10-09T20:44:34.928Z,14.00
2018-10-09T20:47:04.092Z,14.00
2018-10-09T20:49:32.216Z,14.00
2018-10-09T20:54:28.701Z,13.70
2018-10-09T20:56:57.552Z,13.70
2018-10-09T21:00:29.128Z,13.60
2018-10-09T21:02:57.516Z,13.50
2018-10-09T21:05:26.162Z,13.60
2018-10-09T21:07:54.588Z,13.50
2018-10-09T21:12:51.443Z,13.40
2018-10-09T21:15:20.349Z,13.40
2018-10-09T21:17:48.784Z,13.40
2018-10-09T21:20:16.983Z,13.40
2018-10-09T21:22:45.309Z,13.40
2018-10-09T21:25:14.125Z,13.20
2018-10-09T21:32:38.649Z,13.20
2018-10-09T21:35:07.523Z,13.20
2018-10-09T21:37:36.000Z,13.20
2018-10-09T21:42:32.360Z,13.00
2018-10-09T21:45:01.150Z,13.00
2018-10-09T21:47:29.550Z,12.90
2018-10-09T21:49:58.207Z,13.10
2018-10-09T21:52:26.532Z,13.00
2018-10-09T21:54:54.855Z,12.90
2018-10-09T21:57:23.559Z,12.80
2018-10-09T21:59:52.070Z,12.80
2018-10-09T22:02:20.405Z,12.70
2018-10-09T22:04:49.151Z,12.70
2018-10-09T22:07:18.474Z,12.50
2018-10-09T22:09:46.849Z,12.50
2018-10-09T22:14:43.408Z,12.40
2018-10-09T22:17:11.624Z,12.50
2018-10-09T22:19:40.008Z,12.50
2018-10-09T22:24:36.493Z,12.80
2018-10-09T22:29:32.993Z,12.60
2018-10-09T22:34:29.698Z,12.60
2018-10-09T22:39:26.285Z,12.50
2018-10-09T22:41:55.205Z,12.50
2018-10-09T22:46:51.540Z,12.30
2018-10-09T22:51:48.353Z,12.30
2018-10-09T22:54:16.991Z,12.20
2018-10-09T22:56:45.564Z,12.20
2018-10-09T23:01:42.323Z,12.20
2018-10-09T23:04:11.241Z,12.30
2018-10-09T23:06:39.821Z,12.30
2018-10-09T23:14:06.530Z,12.30
2018-10-09T23:16:34.918Z,12.30
2018-10-09T23:21:31.903Z,12.10
2018-10-09T23:24:00.967Z,12.10
2018-10-09T23:26:29.530Z,12.00
2018-10-09T23:28:58.275Z,12.00
2018-10-09T23:31:26.597Z,11.90
2018-10-09T23:33:54.910Z,11.80
2018-10-09T23:36:23.411Z,11.90
2018-10-09T23:38:51.817Z,11.90
2018-10-09T23:43:48.567Z,11.60
2018-10-09T23:46:16.784Z,11.50
2018-10-09T23:51:13.687Z,11.40
2018-10-09T23:53:41.952Z,11.30
2018-10-09T23:56:10.484Z,11.20
2018-10-09T23:58:39.413Z,11.10
